Bookmark and Share
Track history (hours):
 

Atlantida Azul

Last reported at 2014-Apr-19 06:24 UTC. Time now 2014-Apr-19 09:28 UTC.
Position N 37°56' W 008°51'.

Length 16 m.

Type: Pilot. MMSI: 263672880.

NotesDate/timePositionNaut miles runAvg speedWind from/ knotsBaromVisibWave heightAir tempDewpointWater temp
2014-Apr-19 06:24N 37°56' W 008°51'0 0.0
2014-Apr-19 05:30N 37°56' W 008°51'0 0.0
2014-Apr-19 04:33N 37°56' W 008°51'0 0.0
2014-Apr-19 03:33N 37°56' W 008°51'1 0.9
2014-Apr-19 02:33N 37°55' W 008°51'2 1.5
2014-Apr-19 01:31N 37°57' W 008°52'3 3.5
2014-Apr-19 00:33N 37°53' W 008°51'3 2.5
2014-Apr-18 23:32N 37°56' W 008°51'0 0.1
2014-Apr-18 19:18N 37°56' W 008°51'0 0.0
2014-Apr-18 16:24N 37°56' W 008°51'0 0.0
2014-Apr-18 15:32N 37°56' W 008°51'1 0.7
2014-Apr-18 14:33N 37°56' W 008°50'1 0.2
2014-Apr-18 10:08N 37°56' W 008°51'1 1.4
2014-Apr-18 09:34N 37°55' W 008°51'1 1.5
2014-Apr-18 08:33N 37°57' W 008°52'0 0.1
2014-Apr-18 07:30N 37°57' W 008°52'0 0.0
2014-Apr-18 06:18N 37°57' W 008°52'1 1.6
2014-Apr-18 05:33N 37°56' W 008°51'0 0.0
2014-Apr-17 16:14N 37°56' W 008°51'1 2.0
2014-Apr-17 15:33N 37°57' W 008°52'1 1.3
2014-Apr-17 14:33N 37°56' W 008°51'0 0.0
2014-Apr-17 06:33N 37°56' W 008°51'3 2.6
2014-Apr-17 05:33N 37°55' W 008°53'3 1.2
2014-Apr-17 03:20N 37°56' W 008°51'0 0.0
2014-Apr-17 02:32N 37°56' W 008°51'0 0.0
2014-Apr-17 01:32N 37°56' W 008°51'0 0.0
2014-Apr-17 00:33N 37°56' W 008°51'0 0.0
2014-Apr-16 21:12N 37°56' W 008°51'0 0.5
2014-Apr-16 20:33N 37°56' W 008°51'0 0.0
2014-Apr-16 11:23N 37°56' W 008°51'0 0.3
2014-Apr-16 10:32N 37°56' W 008°51'1 0.7
2014-Apr-16 08:31N 37°57' W 008°52'3 1.5
2014-Apr-16 06:33N 37°54' W 008°51'2 0.3
2014-Apr-16 00:23N 37°56' W 008°51'0 0.0
2014-Apr-15 23:33N 37°56' W 008°51'0 0.0
2014-Apr-15 22:33N 37°56' W 008°51'0 0.3
2014-Apr-15 21:33N 37°56' W 008°51'0 0.1
2014-Apr-15 18:27N 37°56' W 008°51'0 0.5
2014-Apr-15 17:33N 37°56' W 008°51'0 0.5
2014-Apr-15 16:32N 37°55' W 008°51'1 0.1
2014-Apr-15 06:32N 37°56' W 008°51'0 0.3
2014-Apr-15 05:31N 37°56' W 008°51'2 0.8
2014-Apr-15 03:33N 37°57' W 008°53'0 0.1
2014-Apr-15 00:33N 37°57' W 008°53'2 1.5
2014-Apr-14 23:33N 37°56' W 008°51'2 0.2
2014-Apr-14 14:33N 37°54' W 008°51'1 0.2
2014-Apr-14 06:33N 37°56' W 008°51'2 2.4
2014-Apr-14 05:33N 37°55' W 008°54'3 0.2
2014-Apr-13 16:33N 37°56' W 008°51'0 0.0
2014-Apr-13 06:17N 37°56' W 008°51'0 0.3
2014-Apr-13 05:31N 37°56' W 008°51'1 0.1
2014-Apr-12 16:33N 37°56' W 008°53'1 1.4
2014-Apr-12 15:31N 37°56' W 008°51'1 0.7
2014-Apr-12 13:33N 37°55' W 008°50'2 0.2
2014-Apr-12 06:30N 37°56' W 008°51'2 0.6
2014-Apr-12 03:33N 37°55' W 008°50'1 1.4
2014-Apr-12 02:34N 37°56' W 008°51'0 0.0
2014-Apr-11 16:33N 37°56' W 008°51'1 0.6
2014-Apr-11 15:33N 37°56' W 008°51'1 0.1
2014-Apr-11 10:31N 37°56' W 008°51'0 0.0
2014-Apr-11 02:33N 37°56' W 008°51'2 1.8
2014-Apr-11 01:33N 37°57' W 008°53'2 1.8
2014-Apr-11 00:33N 37°56' W 008°51'2 1.8
2014-Apr-10 23:32N 37°56' W 008°53'2 1.6
2014-Apr-10 22:31N 37°56' W 008°51'3 0.2
2014-Apr-10 07:33N 37°55' W 008°54'3 1.5
2014-Apr-10 05:33N 37°56' W 008°51'0 0.0
2014-Apr-10 04:33N 37°56' W 008°51'0 0.0
2014-Apr-10 02:06N 37°56' W 008°51'1 1.4
2014-Apr-10 01:33N 37°56' W 008°51'1 0.7
2014-Apr-10 00:31N 37°56' W 008°51'0 0.1
2014-Apr-09 21:33N 37°56' W 008°51'1 0.7
2014-Apr-09 20:14N 37°57' W 008°52'1 1.3
2014-Apr-09 19:32N 37°56' W 008°52'1 0.1
2014-Apr-09 10:32N 37°57' W 008°53'1 0.6
2014-Apr-09 09:33N 37°57' W 008°52'  

Dump ship's entire track history

sailing weather and tide predictions

Atlantida Azul — CSYG2 — position and weather